createdAt,value
2022-12-04T00:00:52.867Z,99668.59
2022-12-04T00:03:19.707Z,99655.66
2022-12-04T00:05:46.509Z,99646.00
2022-12-04T00:08:13.311Z,99644.38
2022-12-04T00:10:43.514Z,99654.78
2022-12-04T00:13:10.303Z,99656.94
2022-12-04T00:15:40.996Z,99650.75
2022-12-04T00:18:07.788Z,99654.19
2022-12-04T00:20:34.580Z,99655.06
2022-12-04T00:23:01.349Z,99650.28
2022-12-04T00:25:30.129Z,99661.41
2022-12-04T00:27:57.107Z,99647.69
2022-12-04T00:30:23.962Z,99643.94
2022-12-04T00:32:50.825Z,99643.44
2022-12-04T00:35:17.658Z,99653.34
2022-12-04T00:37:44.504Z,99657.00
2022-12-04T00:40:11.650Z,99649.16
2022-12-04T00:42:38.401Z,99657.47
2022-12-04T00:45:05.493Z,99650.28
2022-12-04T00:47:32.317Z,99663.44
2022-12-04T00:49:59.148Z,99659.53
2022-12-04T00:52:25.951Z,99665.78
2022-12-04T00:54:52.777Z,99672.00
2022-12-04T00:57:19.557Z,99660.16
2022-12-04T00:59:46.365Z,99670.66
2022-12-04T01:02:13.168Z,99668.22
2022-12-04T01:04:39.921Z,99665.41
2022-12-04T01:07:06.719Z,99668.94
2022-12-04T01:09:33.523Z,99658.94
2022-12-04T01:12:00.314Z,99644.25
2022-12-04T01:14:27.152Z,99649.03
2022-12-04T01:16:54.067Z,99641.09
2022-12-04T01:19:21.015Z,99650.63
2022-12-04T01:21:47.982Z,99641.81
2022-12-04T01:24:14.787Z,99644.91
2022-12-04T01:26:41.602Z,99639.00
2022-12-04T01:29:08.381Z,99626.66
2022-12-04T01:31:35.293Z,99623.63
2022-12-04T01:34:02.172Z,99621.88
2022-12-04T01:36:29.025Z,99617.97
2022-12-04T01:38:56.167Z,99612.75
2022-12-04T01:41:25.502Z,99615.81
2022-12-04T01:44:10.895Z,99620.06
2022-12-04T01:46:38.174Z,99624.09
2022-12-04T01:49:05.311Z,99621.16
2022-12-04T01:51:37.153Z,99623.00
2022-12-04T01:54:17.154Z,99612.75
2022-12-04T01:56:54.999Z,99617.25
2022-12-04T01:59:26.099Z,99610.06
2022-12-04T02:01:59.553Z,99617.66
2022-12-04T02:04:27.490Z,99621.56
2022-12-04T02:06:54.261Z,99626.06
2022-12-04T02:09:26.153Z,99610.56
2022-12-04T02:12:02.571Z,99616.69
2022-12-04T02:14:48.224Z,99608.38
2022-12-04T02:17:27.067Z,99620.44
2022-12-04T02:19:57.174Z,99613.22
2022-12-04T02:22:44.394Z,99624.47
2022-12-04T02:25:16.995Z,99627.03
2022-12-04T02:27:52.297Z,99627.78
2022-12-04T02:30:19.201Z,99635.44
2022-12-04T02:32:51.525Z,99627.72
2022-12-04T02:35:39.774Z,99629.94
2022-12-04T02:38:27.879Z,99628.25
2022-12-04T02:40:58.791Z,99631.91
2022-12-04T02:43:54.885Z,99631.28
2022-12-04T02:46:26.327Z,99631.41
2022-12-04T02:48:56.102Z,99619.47
2022-12-04T02:51:24.230Z,99627.31
2022-12-04T02:53:54.998Z,99633.78
2022-12-04T02:56:25.043Z,99632.19
2022-12-04T02:58:57.398Z,99620.47
2022-12-04T03:01:27.975Z,99610.47
2022-12-04T03:03:57.953Z,99603.34
2022-12-04T03:06:27.349Z,99603.22
2022-12-04T03:09:01.021Z,99614.34
2022-12-04T03:11:30.675Z,99605.56
2022-12-04T03:14:01.628Z,99613.34
2022-12-04T03:16:35.217Z,99614.69
2022-12-04T03:19:10.465Z,99615.91
2022-12-04T03:21:39.367Z,99612.88
2022-12-04T03:24:13.691Z,99616.91
2022-12-04T03:26:46.552Z,99621.88
2022-12-04T03:29:21.185Z,99631.28
2022-12-04T03:31:48.010Z,99622.75
2022-12-04T03:34:17.530Z,99622.06
2022-12-04T03:36:52.115Z,99622.41
2022-12-04T03:39:21.812Z,99621.19
2022-12-04T03:41:54.625Z,99626.19
2022-12-04T03:44:32.639Z,99619.47
2022-12-04T03:47:04.659Z,99620.34
2022-12-04T03:49:49.328Z,99626.94
2022-12-04T03:52:22.231Z,99602.13
2022-12-04T03:54:52.026Z,99611.81
2022-12-04T03:57:22.605Z,99608.50
2022-12-04T03:59:54.047Z,99604.47
2022-12-04T04:02:24.876Z,99600.31
2022-12-04T04:04:55.774Z,99598.84
2022-12-04T04:07:35.510Z,99593.81
2022-12-04T04:10:05.954Z,99596.16
2022-12-04T04:12:36.119Z,99594.81
2022-12-04T04:15:06.797Z,99604.34
2022-12-04T04:17:38.923Z,99591.66
2022-12-04T04:20:08.718Z,99586.13
2022-12-04T04:22:35.641Z,99585.53
2022-12-04T04:25:07.669Z,99591.03
2022-12-04T04:27:34.440Z,99584.31
2022-12-04T04:30:01.680Z,99581.03
2022-12-04T04:32:45.897Z,99582.22
2022-12-04T04:35:15.714Z,99587.97
2022-12-04T04:37:56.366Z,99592.00
2022-12-04T04:40:32.322Z,99585.66
2022-12-04T04:43:11.290Z,99577.47
2022-12-04T04:45:38.049Z,99583.47
2022-12-04T04:48:14.442Z,99586.91
2022-12-04T04:50:42.038Z,99587.50
2022-12-04T04:53:11.790Z,99593.59
2022-12-04T04:55:38.841Z,99585.28
2022-12-04T04:58:08.696Z,99590.06
2022-12-04T05:00:35.699Z,99584.31
2022-12-04T05:03:02.611Z,99577.75
2022-12-04T05:05:29.535Z,99584.59
2022-12-04T05:07:56.409Z,99568.22
2022-12-04T05:10:23.404Z,99574.06
2022-12-04T05:12:50.217Z,99578.34
2022-12-04T05:15:17.019Z,99583.47
2022-12-04T05:17:43.833Z,99590.69
2022-12-04T05:20:10.869Z,99577.75
2022-12-04T05:22:37.674Z,99585.91
2022-12-04T05:25:04.772Z,99583.88
2022-12-04T05:27:31.679Z,99585.91
2022-12-04T05:29:59.165Z,99589.22
2022-12-04T05:32:27.311Z,99583.13
2022-12-04T05:34:54.637Z,99583.84
2022-12-04T05:37:21.865Z,99581.41
2022-12-04T05:39:48.683Z,99590.09
2022-12-04T05:42:15.620Z,99584.22
2022-12-04T05:44:43.414Z,99576.78
2022-12-04T05:47:10.283Z,99591.06
2022-12-04T05:49:37.149Z,99599.84
2022-12-04T05:52:04.792Z,99593.59
2022-12-04T05:54:31.630Z,99593.63
2022-12-04T05:56:58.474Z,99590.81
2022-12-04T05:59:25.318Z,99597.06
2022-12-04T06:01:52.170Z,99601.28
2022-12-04T06:04:19.041Z,99605.34
2022-12-04T06:06:45.829Z,99599.13
2022-12-04T06:09:12.759Z,99604.13
2022-12-04T06:11:40.383Z,99605.44
2022-12-04T06:14:08.154Z,99608.28
2022-12-04T06:16:36.616Z,99607.78
2022-12-04T06:19:05.867Z,99610.34
2022-12-04T06:21:33.842Z,99608.75
2022-12-04T06:24:00.851Z,99598.13
2022-12-04T06:26:27.899Z,99606.19
2022-12-04T06:28:55.835Z,99615.72
2022-12-04T06:31:23.046Z,99610.09
2022-12-04T06:33:50.231Z,99605.34
2022-12-04T06:36:18.604Z,99599.13
2022-12-04T06:38:45.697Z,99597.16
2022-12-04T06:41:13.715Z,99602.41
2022-12-04T06:43:40.818Z,99599.34
2022-12-04T06:46:12.062Z,99604.25
2022-12-04T06:48:39.150Z,99590.31
2022-12-04T06:51:08.809Z,99593.38
2022-12-04T06:53:35.621Z,99588.09
2022-12-04T06:56:04.465Z,99601.94
2022-12-04T06:58:31.707Z,99595.06
2022-12-04T07:00:58.634Z,99602.53
2022-12-04T07:03:26.494Z,99595.94
2022-12-04T07:05:53.255Z,99604.97
2022-12-04T07:08:20.136Z,99606.91
2022-12-04T07:10:47.059Z,99604.97
2022-12-04T07:13:13.827Z,99600.06
2022-12-04T07:15:40.618Z,99601.41
2022-12-04T07:18:07.395Z,99598.97
2022-12-04T07:20:34.269Z,99598.97
2022-12-04T07:23:05.613Z,99605.97
2022-12-04T07:25:33.949Z,99604.72
2022-12-04T07:28:00.745Z,99600.59
2022-12-04T07:30:27.526Z,99589.09
2022-12-04T07:32:54.397Z,99591.16
2022-12-04T07:35:21.186Z,99594.22
2022-12-04T07:37:47.989Z,99577.97
2022-12-04T07:40:14.829Z,99577.00
2022-12-04T07:42:41.603Z,99570.03
2022-12-04T07:45:08.727Z,99577.88
2022-12-04T07:47:35.769Z,99574.56
2022-12-04T07:50:03.562Z,99571.38
2022-12-04T07:52:30.353Z,99576.63
2022-12-04T07:54:57.597Z,99577.63
2022-12-04T07:57:24.381Z,99568.81
2022-12-04T07:59:51.154Z,99577.00
2022-12-04T08:02:17.943Z,99573.72
2022-12-04T08:04:44.856Z,99576.25
2022-12-04T08:07:11.750Z,99589.56
2022-12-04T08:09:38.550Z,99586.16
2022-12-04T08:12:05.458Z,99587.00
2022-12-04T08:14:32.215Z,99598.50
2022-12-04T08:16:59.104Z,99607.78
2022-12-04T08:19:25.984Z,99604.34
2022-12-04T08:21:54.320Z,99597.97
2022-12-04T08:24:21.330Z,99601.53
2022-12-04T08:26:48.109Z,99604.09
2022-12-04T08:29:14.908Z,99601.75
2022-12-04T08:31:41.713Z,99601.75
2022-12-04T08:34:08.523Z,99604.44
2022-12-04T08:36:35.641Z,99607.13
2022-12-04T08:39:02.471Z,99602.34
2022-12-04T08:41:29.280Z,99600.41
2022-12-04T08:43:56.267Z,99598.09
2022-12-04T08:46:24.260Z,99600.78
2022-12-04T08:48:51.122Z,99603.81
2022-12-04T08:51:19.796Z,99598.31
2022-12-04T08:53:46.909Z,99594.41
2022-12-04T08:56:14.737Z,99591.47
2022-12-04T08:58:41.533Z,99597.09
2022-12-04T09:01:09.833Z,99594.53
2022-12-04T09:03:36.704Z,99592.84
2022-12-04T09:06:04.238Z,99588.44
2022-12-04T09:08:31.489Z,99599.03
2022-12-04T09:11:07.436Z,99598.78
2022-12-04T09:13:34.758Z,99594.97
2022-12-04T09:16:06.164Z,99594.75
2022-12-04T09:18:33.725Z,99598.06
2022-12-04T09:21:01.933Z,99607.59
2022-12-04T09:23:29.259Z,99614.91
2022-12-04T09:25:56.323Z,99607.19
2022-12-04T09:28:23.121Z,99612.91
2022-12-04T09:31:00.212Z,99609.81
2022-12-04T09:33:27.206Z,99603.47
2022-12-04T09:35:54.105Z,99601.28
2022-12-04T09:38:20.922Z,99596.50
2022-12-04T09:41:07.975Z,99599.91
2022-12-04T09:43:48.185Z,99589.94
2022-12-04T09:46:18.924Z,99579.75
2022-12-04T09:48:46.441Z,99580.09
2022-12-04T09:51:16.060Z,99580.72
2022-12-04T09:54:03.169Z,99589.47
2022-12-04T09:56:30.942Z,99579.84
2022-12-04T09:58:57.757Z,99580.41
2022-12-04T10:01:24.497Z,99576.28
2022-12-04T10:03:52.531Z,99575.91
2022-12-04T10:06:38.068Z,99587.53
2022-12-04T10:09:14.332Z,99571.78
2022-12-04T10:11:41.093Z,99579.25
2022-12-04T10:14:26.419Z,99575.03
2022-12-04T10:17:13.334Z,99578.97
2022-12-04T10:20:06.225Z,99577.22
2022-12-04T10:22:36.626Z,99579.66
2022-12-04T10:25:11.700Z,99562.66
2022-12-04T10:27:48.768Z,99564.09
2022-12-04T10:30:26.553Z,99567.25
2022-12-04T10:32:57.647Z,99561.09
2022-12-04T10:35:27.176Z,99559.97
2022-12-04T10:37:57.807Z,99560.75
2022-12-04T10:40:24.678Z,99564.19
2022-12-04T10:43:02.132Z,99550.06
2022-12-04T10:45:28.999Z,99544.59
2022-12-04T10:47:55.776Z,99556.44
2022-12-04T10:50:23.842Z,99560.94
2022-12-04T10:52:51.062Z,99555.38
2022-12-04T10:55:31.569Z,99555.69
2022-12-04T10:57:58.349Z,99548.19
2022-12-04T11:00:28.432Z,99549.19
2022-12-04T11:02:56.840Z,99547.34
2022-12-04T11:05:34.887Z,99540.06
2022-12-04T11:08:04.560Z,99532.72
2022-12-04T11:10:36.516Z,99514.00
2022-12-04T11:13:21.270Z,99511.56
2022-12-04T11:15:49.438Z,99507.63
2022-12-04T11:18:20.494Z,99505.50
2022-12-04T11:20:52.062Z,99501.94
2022-12-04T11:23:19.082Z,99502.19
2022-12-04T11:25:48.189Z,99505.16
2022-12-04T11:28:33.788Z,99498.44
2022-12-04T11:31:04.929Z,99497.31
2022-12-04T11:33:34.552Z,99489.59
2022-12-04T11:36:03.044Z,99489.19
2022-12-04T11:38:31.855Z,99495.97
2022-12-04T11:40:58.771Z,99486.94
2022-12-04T11:43:27.486Z,99490.78
2022-12-04T11:46:04.819Z,99492.03
2022-12-04T11:48:32.448Z,99490.94
2022-12-04T11:51:05.057Z,99480.00
2022-12-04T11:53:50.564Z,99485.09
2022-12-04T11:56:40.345Z,99474.94
2022-12-04T11:59:26.918Z,99468.41
2022-12-04T12:01:58.776Z,99463.41
2022-12-04T12:04:33.355Z,99459.59
2022-12-04T12:07:08.557Z,99456.50
2022-12-04T12:09:38.067Z,99455.38
2022-12-04T12:12:17.839Z,99462.28
2022-12-04T12:15:03.243Z,99459.94
2022-12-04T12:17:35.148Z,99469.72
2022-12-04T12:20:02.026Z,99465.06
2022-12-04T12:22:31.903Z,99470.03
2022-12-04T12:25:06.896Z,99476.16
2022-12-04T12:27:46.011Z,99477.88
2022-12-04T12:30:17.824Z,99473.53
2022-12-04T12:32:50.340Z,99477.34
2022-12-04T12:35:22.435Z,99481.16
2022-12-04T12:38:00.286Z,99475.03
2022-12-04T12:40:33.386Z,99478.31
2022-12-04T12:43:02.768Z,99478.06
2022-12-04T12:45:42.858Z,99474.31
2022-12-04T12:48:21.035Z,99480.59
2022-12-04T12:51:08.983Z,99476.59
2022-12-04T12:53:39.730Z,99482.38
2022-12-04T12:56:11.914Z,99500.66
2022-12-04T12:58:42.670Z,99491.31
2022-12-04T13:01:22.504Z,99495.63
2022-12-04T13:03:54.762Z,99487.78
2022-12-04T13:06:30.899Z,99487.66
2022-12-04T13:09:13.102Z,99482.66
2022-12-04T13:11:40.291Z,99477.59
2022-12-04T13:14:07.088Z,99474.50
2022-12-04T13:16:38.463Z,99472.94
2022-12-04T13:19:09.654Z,99474.94
2022-12-04T13:21:46.229Z,99463.41
2022-12-04T13:24:21.929Z,99453.78
2022-12-04T13:27:00.800Z,99445.38
2022-12-04T13:29:38.232Z,99447.94
2022-12-04T13:32:27.190Z,99446.41
2022-12-04T13:35:08.275Z,99454.47
2022-12-04T13:37:47.358Z,99447.09
2022-12-04T13:40:32.696Z,99451.03
2022-12-04T13:43:18.223Z,99442.22
2022-12-04T13:45:46.172Z,99444.34
2022-12-04T13:48:13.049Z,99447.88
2022-12-04T13:50:40.559Z,99446.47
2022-12-04T13:53:27.386Z,99454.53
2022-12-04T13:55:59.985Z,99437.41
2022-12-04T13:58:31.302Z,99438.88
2022-12-04T14:01:21.134Z,99432.81
2022-12-04T14:03:52.575Z,99422.78
2022-12-04T14:06:24.173Z,99422.25
2022-12-04T14:08:56.171Z,99417.97
2022-12-04T14:11:23.630Z,99428.50
2022-12-04T14:13:52.302Z,99428.75
2022-12-04T14:16:40.160Z,99431.56
2022-12-04T14:19:07.482Z,99431.69
2022-12-04T14:21:46.907Z,99434.44
2022-12-04T14:24:22.608Z,99437.88
2022-12-04T14:29:49.303Z,99433.69
2022-12-04T14:32:23.105Z,99438.31
2022-12-04T14:34:50.278Z,99439.75
2022-12-04T14:37:23.182Z,99435.94
2022-12-04T14:39:50.305Z,99436.63
2022-12-04T14:42:21.871Z,99436.94
2022-12-04T14:44:52.660Z,99441.88
2022-12-04T14:47:22.561Z,99434.75
2022-12-04T14:50:08.369Z,99440.44
2022-12-04T14:52:40.662Z,99447.53
2022-12-04T14:55:22.437Z,99446.16
2022-12-04T14:57:49.187Z,99450.16
2022-12-04T15:00:20.365Z,99445.84
2022-12-04T15:02:47.962Z,99447.41
2022-12-04T15:05:20.737Z,99450.53
2022-12-04T15:07:49.221Z,99443.47
2022-12-04T15:10:26.307Z,99450.34
2022-12-04T15:12:53.992Z,99451.97
2022-12-04T15:15:28.570Z,99455.09
2022-12-04T15:17:59.617Z,99456.59
2022-12-04T15:20:27.251Z,99451.22
2022-12-04T15:22:55.557Z,99454.03
2022-12-04T15:30:58.051Z,99456.22
2022-12-04T15:33:27.350Z,99457.66
2022-12-04T15:35:56.885Z,99459.41
2022-12-04T15:38:23.877Z,99463.16
2022-12-04T15:40:58.863Z,99460.41
2022-12-04T15:43:30.094Z,99470.31
2022-12-04T15:45:57.495Z,99466.78
2022-12-04T15:48:29.199Z,99460.09
2022-12-04T15:50:57.221Z,99461.09
2022-12-04T15:53:29.058Z,99465.22
2022-12-04T15:55:58.269Z,99467.91
2022-12-04T15:58:25.014Z,99476.31
2022-12-04T16:00:56.953Z,99467.63
2022-12-04T16:03:28.554Z,99480.94
2022-12-04T16:06:15.281Z,99476.81
2022-12-04T16:08:43.566Z,99476.81
2022-12-04T16:11:19.423Z,99474.66
2022-12-04T16:13:47.286Z,99478.50
2022-12-04T16:16:15.695Z,99486.44
2022-12-04T16:18:43.151Z,99486.31
2022-12-04T16:21:15.294Z,99470.44
2022-12-04T16:23:42.260Z,99469.53
2022-12-04T16:26:16.520Z,99475.25
2022-12-04T16:28:43.313Z,99482.72
2022-12-04T16:31:11.565Z,99471.34
2022-12-04T16:33:38.488Z,99485.00
2022-12-04T16:36:05.396Z,99474.84
2022-12-04T16:38:32.238Z,99489.69
2022-12-04T16:40:59.037Z,99470.72
2022-12-04T16:43:25.838Z,99482.19
2022-12-04T16:45:53.434Z,99475.25
2022-12-04T16:48:20.591Z,99469.16
2022-12-04T16:50:47.474Z,99480.63
2022-12-04T16:53:23.387Z,99466.59
2022-12-04T16:55:51.090Z,99460.88
2022-12-04T16:58:19.070Z,99465.72
2022-12-04T17:00:49.588Z,99474.34
2022-12-04T17:03:18.299Z,99468.81
2022-12-04T17:05:45.150Z,99457.34
2022-12-04T17:08:11.973Z,99460.03
2022-12-04T17:10:38.911Z,99466.13
2022-12-04T17:13:05.803Z,99467.75
2022-12-04T17:15:32.702Z,99458.97
2022-12-04T17:17:59.480Z,99457.88
2022-12-04T17:20:26.345Z,99456.47
2022-12-04T17:22:53.278Z,99456.88
2022-12-04T17:25:20.109Z,99455.03
2022-12-04T17:27:46.919Z,99450.31
2022-12-04T17:30:13.966Z,99446.94
2022-12-04T17:32:40.762Z,99434.31
2022-12-04T17:35:08.646Z,99430.78
2022-12-04T17:37:35.950Z,99435.16
2022-12-04T17:40:03.286Z,99432.81
2022-12-04T17:42:30.048Z,99426.16
2022-12-04T17:44:57.340Z,99438.88
2022-12-04T17:47:24.374Z,99436.34
2022-12-04T17:49:51.226Z,99432.94
2022-12-04T17:52:18.050Z,99434.38
2022-12-04T17:54:45.223Z,99450.44
2022-12-04T17:57:12.025Z,99442.00
2022-12-04T17:59:38.820Z,99447.50
2022-12-04T18:02:05.821Z,99440.88
2022-12-04T18:04:32.631Z,99446.56
2022-12-04T18:06:59.414Z,99444.47
2022-12-04T18:09:26.193Z,99451.69
2022-12-04T18:11:53.005Z,99446.19
2022-12-04T18:14:20.130Z,99447.75
2022-12-04T18:16:47.885Z,99444.13
2022-12-04T18:19:15.188Z,99443.50
2022-12-04T18:21:42.267Z,99440.31
2022-12-04T18:24:09.056Z,99438.63
2022-12-04T18:26:37.289Z,99430.56
2022-12-04T18:29:04.623Z,99425.06
2022-12-04T18:31:32.141Z,99428.94
2022-12-04T18:33:59.183Z,99427.34
2022-12-04T18:36:27.225Z,99419.41
2022-12-04T18:38:55.127Z,99421.25
2022-12-04T18:41:22.184Z,99436.81
2022-12-04T18:43:48.994Z,99436.88
2022-12-04T18:46:16.830Z,99440.53
2022-12-04T18:48:44.494Z,99433.00
2022-12-04T18:51:19.746Z,99432.94
2022-12-04T18:53:47.317Z,99437.91
2022-12-04T18:56:14.601Z,99440.41
2022-12-04T18:58:41.812Z,99459.50
2022-12-04T19:01:09.796Z,99439.81
2022-12-04T19:03:36.859Z,99439.03
2022-12-04T19:06:03.993Z,99445.13
2022-12-04T19:08:34.925Z,99442.69
2022-12-04T19:11:07.150Z,99446.81
2022-12-04T19:13:34.428Z,99458.97
2022-12-04T19:16:01.887Z,99455.63
2022-12-04T19:18:28.904Z,99456.88
2022-12-04T19:20:56.191Z,99464.94
2022-12-04T19:23:23.372Z,99456.69
2022-12-04T19:25:56.796Z,99468.75
2022-12-04T19:28:23.823Z,99462.00
2022-12-04T19:30:52.011Z,99467.22
2022-12-04T19:33:19.022Z,99469.78
2022-12-04T19:36:03.075Z,99473.94
2022-12-04T19:38:30.683Z,99480.16
2022-12-04T19:41:11.210Z,99471.31
2022-12-04T19:43:39.056Z,99473.03
2022-12-04T19:46:10.913Z,99481.78
2022-12-04T19:48:43.075Z,99477.03
2022-12-04T19:51:11.896Z,99471.53
2022-12-04T19:53:41.145Z,99462.47
2022-12-04T19:56:10.077Z,99462.91
2022-12-04T19:58:38.338Z,99466.91
2022-12-04T20:01:07.033Z,99472.41
2022-12-04T20:03:34.131Z,99472.56
2022-12-04T20:06:01.927Z,99471.97
2022-12-04T20:08:28.770Z,99467.28
2022-12-04T20:10:55.554Z,99468.88
2022-12-04T20:13:22.361Z,99473.88
2022-12-04T20:15:49.246Z,99455.28
2022-12-04T20:18:16.024Z,99462.09
2022-12-04T20:20:42.837Z,99466.31
2022-12-04T20:23:09.623Z,99460.22
2022-12-04T20:25:36.479Z,99459.34
2022-12-04T20:28:03.294Z,99462.16
2022-12-04T20:30:30.107Z,99459.16
2022-12-04T20:32:56.961Z,99471.78
2022-12-04T20:35:23.753Z,99475.59
2022-12-04T20:37:50.553Z,99472.59
2022-12-04T20:40:17.495Z,99476.69
2022-12-04T20:42:44.306Z,99477.03
2022-12-04T20:45:11.125Z,99478.97
2022-12-04T20:47:37.907Z,99475.91
2022-12-04T20:50:05.834Z,99486.66
2022-12-04T20:52:33.704Z,99475.63
2022-12-04T20:55:00.482Z,99482.53
2022-12-04T20:57:27.266Z,99494.63
2022-12-04T20:59:54.128Z,99496.63
2022-12-04T21:02:21.120Z,99490.69
2022-12-04T21:04:47.987Z,99490.94
2022-12-04T21:07:14.798Z,99491.06
2022-12-04T21:09:42.689Z,99501.16
2022-12-04T21:12:09.498Z,99502.81
2022-12-04T21:14:37.350Z,99497.03
2022-12-04T21:17:04.833Z,99494.81
2022-12-04T21:19:31.744Z,99495.06
2022-12-04T21:21:58.528Z,99489.50
2022-12-04T21:24:26.011Z,99491.31
2022-12-04T21:26:53.198Z,99498.00
2022-12-04T21:29:20.214Z,99487.66
2022-12-04T21:31:47.094Z,99489.63
2022-12-04T21:34:14.985Z,99491.84
2022-12-04T21:36:41.844Z,99498.56
2022-12-04T21:39:09.050Z,99504.06
2022-12-04T21:41:36.013Z,99504.63
2022-12-04T21:44:10.251Z,99503.94
2022-12-04T21:46:37.131Z,99503.59
2022-12-04T21:49:03.991Z,99512.97
2022-12-04T21:51:56.326Z,99515.94
2022-12-04T21:54:17.821Z,99507.00
2022-12-04T21:56:44.865Z,99511.66
2022-12-04T21:59:12.802Z,99517.75
2022-12-04T22:01:40.052Z,99515.59
2022-12-04T22:04:06.952Z,99507.00
2022-12-04T22:06:33.811Z,99511.50
2022-12-04T22:09:00.725Z,99522.16
2022-12-04T22:11:27.566Z,99517.63
2022-12-04T22:13:55.551Z,99518.50
2022-12-04T22:16:25.607Z,99514.81
2022-12-04T22:18:57.309Z,99515.94
2022-12-04T22:21:24.727Z,99523.00
2022-12-04T22:23:58.196Z,99513.13
2022-12-04T22:26:25.706Z,99514.19
2022-12-04T22:28:52.634Z,99520.19
2022-12-04T22:31:20.685Z,99519.78
2022-12-04T22:33:48.550Z,99520.19
2022-12-04T22:36:18.467Z,99517.25
2022-12-04T22:39:06.029Z,99518.88
2022-12-04T22:41:32.130Z,99521.03
2022-12-04T22:43:58.924Z,99516.50
2022-12-04T22:46:25.857Z,99527.41
2022-12-04T22:48:52.760Z,99520.06
2022-12-04T22:51:20.793Z,99520.91
2022-12-04T22:53:49.054Z,99517.06
2022-12-04T22:56:26.312Z,99515.28
2022-12-04T22:58:53.561Z,99509.88
2022-12-04T23:01:22.035Z,99513.81
2022-12-04T23:03:49.501Z,99513.81
2022-12-04T23:06:17.019Z,99511.34
2022-12-04T23:08:44.530Z,99512.78
2022-12-04T23:11:13.015Z,99520.41
2022-12-04T23:13:40.232Z,99516.84
2022-12-04T23:16:09.716Z,99523.53
2022-12-04T23:18:37.510Z,99521.44
2022-12-04T23:21:06.788Z,99533.06
2022-12-04T23:23:34.594Z,99527.81
2022-12-04T23:26:05.771Z,99527.56
2022-12-04T23:28:33.038Z,99519.28
2022-12-04T23:31:00.122Z,99529.91
2022-12-04T23:33:27.234Z,99528.38
2022-12-04T23:35:54.805Z,99525.75
2022-12-04T23:38:22.123Z,99530.94
2022-12-04T23:40:48.912Z,99520.06
2022-12-04T23:43:16.072Z,99524.88
2022-12-04T23:45:43.531Z,99523.75
2022-12-04T23:48:10.569Z,99522.94
2022-12-04T23:50:37.380Z,99528.34
2022-12-04T23:53:04.158Z,99529.91
2022-12-04T23:55:34.304Z,99519.13
2022-12-04T23:58:02.380Z,99525.13
